Time;durP1;ratioP1;P1;durP2;ratioP2;P2;SDS_P1;SDS_P2;PMS_P1;PMS_P2;Temp;Humidity;BMP_temperature;BMP_pressure;BME280_temperature;BME280_humidity;BME280_pressure;Samples;Min_cycle;Max_cycle;Signal;HPM_P1;HPM_P2
2023/08/19 00:02:24;;;;;;;;;;;22.80;99.90;;;21.81;100.00;100175.34;9749903;29;97307;-88
2023/08/19 00:07:28;;;;;;;;;;;22.90;99.90;;;21.80;100.00;100183.72;9742343;29;98371;-89
2023/08/19 00:12:32;;;;;;;;;;;22.90;99.90;;;21.79;100.00;100182.06;9747877;29;96916;-89
2023/08/19 00:17:36;;;;;;;;;;;22.90;99.90;;;21.71;100.00;100175.19;9740105;29;99231;-90
2023/08/19 00:22:39;;;;;;;;;;;22.80;99.90;;;21.66;100.00;100176.97;9745547;29;99009;-89
2023/08/19 00:27:43;;;;;;;;;;;22.80;99.90;;;21.52;100.00;100171.81;9720931;29;96747;-89
2023/08/19 00:32:47;;;;;;;;;;;22.60;99.90;;;21.30;100.00;100179.78;9757080;29;97391;-90
2023/08/19 00:37:51;;;;;;;;;;;22.40;99.90;;;21.16;100.00;100182.94;9752709;29;96825;-89
2023/08/19 00:42:54;;;;;;;;;;;22.30;99.90;;;21.07;100.00;100182.47;9741286;29;96607;-89
2023/08/19 00:47:58;;;;;;;;;;;22.10;99.90;;;20.97;100.00;100183.06;9763474;29;96718;-88
2023/08/19 00:53:03;;;;;;;;;;;22.00;99.90;;;20.95;100.00;100181.69;9750573;29;98834;-89
2023/08/19 00:58:07;;;;;;;;;;;22.00;99.90;;;20.93;100.00;100181.91;9748134;29;96756;-89
2023/08/19 01:03:11;;;;;;;;;;;22.00;99.90;;;20.84;100.00;100178.75;9751110;29;98373;-90
2023/08/19 01:08:22;;;;;;;;;;;22.00;99.90;;;20.84;100.00;100186.03;9738089;29;98330;-89
2023/08/19 01:13:36;;;;;;;;;;;21.90;99.90;;;20.68;100.00;100175.91;9743597;29;96730;-89
2023/08/19 01:18:39;;;;;;;;;;;21.80;99.90;;;20.64;100.00;100174.75;9749548;29;97099;-89
2023/08/19 01:23:46;;;;;;;;;;;21.70;99.90;;;20.65;100.00;100181.78;9753068;29;97403;-89
2023/08/19 01:28:50;;;;;;;;;;;21.70;99.90;;;20.56;100.00;100181.31;9741898;29;97300;-89
2023/08/19 01:33:54;;;;;;;;;;;21.70;99.90;;;20.55;100.00;100190.47;9739297;29;97234;-89
2023/08/19 01:39:08;;;;;;;;;;;21.70;99.90;;;20.54;100.00;100186.94;9745415;29;96943;-89
2023/08/19 01:44:11;;;;;;;;;;;21.60;99.90;;;20.54;100.00;100178.84;9752868;29;97720;-89
2023/08/19 01:49:15;;;;;;;;;;;21.70;99.90;;;20.61;100.00;100189.53;9740188;29;98778;-88
2023/08/19 01:54:18;;;;;;;;;;;21.80;99.90;;;20.65;100.00;100185.31;9731594;29;97354;-89
2023/08/19 01:59:22;;;;;;;;;;;21.80;99.90;;;20.66;100.00;100186.13;9746177;29;96892;-89
2023/08/19 02:04:26;;;;;;;;;;;21.80;99.90;;;20.70;100.00;100179.22;9739720;29;98690;-89
2023/08/19 02:09:29;;;;;;;;;;;21.80;99.90;;;20.69;100.00;100173.00;9739565;29;97188;-89
2023/08/19 02:14:33;;;;;;;;;;;21.90;99.90;;;20.76;100.00;100181.81;9755672;29;97461;-89
2023/08/19 02:19:37;;;;;;;;;;;21.90;99.90;;;20.80;100.00;100180.25;9748936;29;97907;-89
2023/08/19 02:24:40;;;;;;;;;;;22.00;99.90;;;20.89;100.00;100193.44;9749562;29;98526;-89
2023/08/19 02:29:44;;;;;;;;;;;22.00;99.90;;;20.90;100.00;100193.19;9726453;29;96954;-89
2023/08/19 02:34:47;;;;;;;;;;;22.00;99.90;;;20.88;100.00;100187.19;9749825;29;98337;-89
2023/08/19 02:39:51;;;;;;;;;;;22.00;99.90;;;20.87;100.00;100185.56;9740256;29;98069;-89
2023/08/19 02:44:54;;;;;;;;;;;22.00;99.90;;;20.78;100.00;100179.69;9733420;29;98390;-88
2023/08/19 02:49:58;;;;;;;;;;;21.90;99.90;;;20.65;100.00;100171.00;9735970;29;96781;-88
2023/08/19 02:55:01;;;;;;;;;;;21.80;99.90;;;20.53;100.00;100179.09;9748437;29;98539;-89
2023/08/19 03:00:07;;;;;;;;;;;21.60;99.90;;;20.49;100.00;100172.50;9722849;29;97517;-88
2023/08/19 03:05:10;;;;;;;;;;;21.60;99.90;;;20.52;100.00;100178.28;9742865;29;96861;-89
2023/08/19 03:10:14;;;;;;;;;;;21.50;99.90;;;20.48;100.00;100160.06;9749083;29;98142;-89
2023/08/19 03:15:18;;;;;;;;;;;21.60;99.90;;;20.50;100.00;100161.47;9751031;29;98100;-89
2023/08/19 03:20:21;;;;;;;;;;;21.70;99.90;;;20.47;100.00;100158.44;9744856;29;96943;-89
2023/08/19 03:25:25;;;;;;;;;;;21.60;99.90;;;20.41;100.00;100162.03;9745295;29;96692;-89
2023/08/19 03:30:28;;;;;;;;;;;21.50;99.90;;;20.34;100.00;100169.41;9757018;29;98042;-89
2023/08/19 03:35:34;;;;;;;;;;;21.50;99.90;;;20.27;100.00;100170.34;9735852;29;97692;-89
2023/08/19 03:40:37;;;;;;;;;;;21.40;99.90;;;20.20;100.00;100171.50;9732340;29;96729;-89
2023/08/19 03:45:41;;;;;;;;;;;21.40;99.90;;;20.11;100.00;100165.63;9757503;29;98436;-89
2023/08/19 03:50:45;;;;;;;;;;;21.30;99.90;;;20.13;100.00;100176.16;9729608;29;97514;-89
2023/08/19 03:55:49;;;;;;;;;;;21.30;99.90;;;20.16;100.00;100194.59;9731728;29;97048;-89
2023/08/19 04:00:52;;;;;;;;;;;21.20;99.90;;;20.13;100.00;100181.56;9741528;29;99231;-89
2023/08/19 04:05:56;;;;;;;;;;;21.30;99.90;;;20.14;100.00;100194.81;9749495;29;99176;-89
2023/08/19 04:11:08;;;;;;;;;;;21.30;99.90;;;20.14;100.00;100197.50;9726074;29;96861;-89
2023/08/19 04:16:12;;;;;;;;;;;21.30;99.90;;;20.09;100.00;100193.84;9739718;29;96862;-89
2023/08/19 04:21:15;;;;;;;;;;;21.30;99.90;;;20.17;100.00;100215.13;9748687;29;96848;-88
2023/08/19 04:26:18;;;;;;;;;;;21.30;99.90;;;20.20;100.00;100206.56;9735839;29;98664;-88
2023/08/19 04:31:22;;;;;;;;;;;21.40;99.90;;;20.33;100.00;100211.75;9749237;29;96801;-88
2023/08/19 04:36:25;;;;;;;;;;;21.50;99.90;;;20.45;100.00;100217.16;9747324;29;98164;-88
2023/08/19 04:41:29;;;;;;;;;;;21.60;99.90;;;20.55;100.00;100210.19;9745201;29;97519;-88
2023/08/19 04:46:32;;;;;;;;;;;21.60;99.90;;;20.65;100.00;100214.19;9747028;29;97471;-88
2023/08/19 04:51:36;;;;;;;;;;;21.70;99.90;;;20.74;100.00;100218.19;9739118;29;98345;-86
2023/08/19 04:56:39;;;;;;;;;;;21.90;99.90;;;20.97;100.00;100218.19;9748087;29;98224;-86
2023/08/19 05:01:43;;;;;;;;;;;22.00;99.90;;;21.14;100.00;100206.66;9748238;29;98489;-87
2023/08/19 05:06:46;;;;;;;;;;;22.30;99.90;;;21.37;100.00;100225.59;9757460;29;98421;-87
2023/08/19 05:11:50;;;;;;;;;;;22.50;99.90;;;21.48;100.00;100222.03;9741402;29;97699;-87
2023/08/19 05:16:53;;;;;;;;;;;22.70;99.90;;;21.66;100.00;100231.88;9749204;29;97220;-87
2023/08/19 05:21:58;;;;;;;;;;;22.80;99.90;;;21.86;100.00;100237.66;9737859;29;98230;-89
2023/08/19 05:27:02;;;;;;;;;;;23.00;99.90;;;21.98;100.00;100240.31;9741720;29;96803;-89
2023/08/19 05:32:06;;;;;;;;;;;23.10;99.90;;;22.05;100.00;100240.19;9741629;29;96747;-88
2023/08/19 05:37:10;;;;;;;;;;;23.30;99.90;;;22.24;100.00;100251.66;9757773;29;98215;-88
2023/08/19 05:42:14;;;;;;;;;;;23.40;99.90;;;22.39;100.00;100257.34;9730076;29;97399;-89
2023/08/19 05:47:18;;;;;;;;;;;23.60;99.90;;;22.54;100.00;100271.13;9733460;29;98765;-88
2023/08/19 05:52:22;;;;;;;;;;;23.70;99.90;;;22.61;100.00;100258.28;9716132;29;97804;-88
2023/08/19 05:57:25;;;;;;;;;;;23.80;99.90;;;22.80;100.00;100272.41;9728938;29;96943;-88
2023/08/19 06:02:29;;;;;;;;;;;24.00;99.90;;;22.94;100.00;100287.28;9734567;29;96999;-88
2023/08/19 06:07:33;;;;;;;;;;;24.10;99.90;;;23.10;100.00;100292.94;9731326;29;99990;-89
2023/08/19 06:12:37;;;;;;;;;;;24.30;99.90;;;23.23;100.00;100311.56;9737029;29;97513;-89
2023/08/19 06:17:46;;;;;;;;;;;24.40;99.90;;;23.31;99.69;100308.41;9741675;29;98610;-88
2023/08/19 06:22:50;;;;;;;;;;;24.50;99.90;;;23.35;98.88;100320.41;9724523;29;97140;-88
2023/08/19 06:27:53;;;;;;;;;;;24.50;99.90;;;23.41;99.29;100330.28;9713540;29;97880;-89
2023/08/19 06:32:57;;;;;;;;;;;24.60;99.90;;;23.45;99.73;100341.41;9748260;29;97254;-88
2023/08/19 06:38:14;;;;;;;;;;;24.60;99.90;;;23.41;100.00;100338.41;9754047;29;98391;-89
2023/08/19 06:43:19;;;;;;;;;;;24.60;99.90;;;23.41;100.00;100367.41;9734444;29;97303;-87
2023/08/19 06:48:24;;;;;;;;;;;24.60;99.90;;;23.24;100.00;100417.03;9756875;29;98192;-89
2023/08/19 06:53:28;;;;;;;;;;;24.40;99.90;;;23.00;99.26;100425.56;9769139;29;98138;-89
2023/08/19 06:58:36;;;;;;;;;;;24.10;99.90;;;22.75;99.51;100461.94;9749443;29;96790;-89
2023/08/19 07:03:40;;;;;;;;;;;23.90;99.90;;;22.40;96.43;100486.41;9747803;29;97977;-90
2023/08/19 07:08:44;;;;;;;;;;;23.60;99.90;;;22.03;100.00;100488.56;9749289;29;98304;-91
2023/08/19 07:13:48;;;;;;;;;;;23.20;99.90;;;21.42;100.00;100495.22;9750495;29;97185;-94
2023/08/19 07:18:54;;;;;;;;;;;22.70;99.90;;;21.00;100.00;100509.50;9740554;29;96880;-90
2023/08/19 07:23:58;;;;;;;;;;;22.20;99.90;;;20.80;100.00;100500.81;9756487;29;96783;-91
2023/08/19 07:29:02;;;;;;;;;;;21.90;99.90;;;20.69;100.00;100529.44;9729470;29;98242;-92
2023/08/19 07:34:06;;;;;;;;;;;21.80;99.90;;;20.61;100.00;100542.41;9739221;29;98102;-92
2023/08/19 07:39:09;;;;;;;;;;;21.80;99.90;;;20.57;100.00;100531.22;9731560;29;97067;-91
2023/08/19 07:44:13;;;;;;;;;;;21.70;99.90;;;20.53;100.00;100530.84;9756480;29;96673;-91
2023/08/19 07:49:16;;;;;;;;;;;21.60;99.90;;;20.47;100.00;100533.63;9723637;29;98091;-93
2023/08/19 07:54:22;;;;;;;;;;;21.50;99.90;;;20.40;100.00;100528.28;9743849;29;98740;-89
2023/08/19 07:59:26;;;;;;;;;;;21.40;99.90;;;20.31;100.00;100535.00;9730626;29;97120;-90
2023/08/19 08:04:30;;;;;;;;;;;21.30;99.90;;;20.24;100.00;100520.75;9743958;29;97619;-91
2023/08/19 08:09:33;;;;;;;;;;;21.30;99.90;;;20.25;100.00;100506.22;9733385;29;96839;-89
2023/08/19 08:14:37;;;;;;;;;;;21.30;99.90;;;20.22;100.00;100491.31;9748948;29;99089;-90
2023/08/19 08:19:40;;;;;;;;;;;21.30;99.90;;;20.25;100.00;100501.63;9747188;29;98466;-90
2023/08/19 08:24:44;;;;;;;;;;;21.30;99.90;;;20.32;100.00;100493.47;9721935;29;98751;-91
2023/08/19 08:29:47;;;;;;;;;;;21.30;99.90;;;20.39;100.00;100480.75;9746396;29;97925;-92
2023/08/19 08:34:51;;;;;;;;;;;21.40;99.90;;;20.46;100.00;100476.13;9737231;29;97986;-90
2023/08/19 08:39:54;;;;;;;;;;;21.60;99.90;;;20.64;100.00;100474.47;9719918;29;97607;-91
2023/08/19 08:44:58;;;;;;;;;;;21.60;99.90;;;20.73;100.00;100448.78;9753392;29;96813;-90
2023/08/19 08:50:02;;;;;;;;;;;21.80;99.90;;;20.83;100.00;100422.06;9731839;29;98524;-91
2023/08/19 08:55:06;;;;;;;;;;;21.90;99.90;;;20.79;100.00;100415.44;9739567;29;97736;-89
2023/08/19 09:00:12;;;;;;;;;;;21.90;99.90;;;20.79;100.00;100401.94;9738806;29;96885;-88
2023/08/19 09:05:17;;;;;;;;;;;21.90;99.90;;;20.82;100.00;100401.50;9747661;29;98051;-94
2023/08/19 09:10:24;;;;;;;;;;;21.90;99.90;;;20.98;100.00;100395.41;9746865;29;98233;-92
2023/08/19 09:15:28;;;;;;;;;;;22.10;99.90;;;21.10;100.00;100373.81;9739581;29;98932;-88
2023/08/19 09:20:33;;;;;;;;;;;22.30;99.90;;;21.33;100.00;100406.31;9726055;29;98382;-89
2023/08/19 09:25:40;;;;;;;;;;;22.50;99.90;;;21.52;100.00;100408.91;9723274;29;98235;-89
2023/08/19 09:30:43;;;;;;;;;;;22.70;99.90;;;21.71;100.00;100412.31;9715045;29;97111;-89
2023/08/19 09:35:56;;;;;;;;;;;22.80;99.90;;;21.82;100.00;100415.03;9727734;29;98644;-88
2023/08/19 09:41:04;;;;;;;;;;;22.90;99.90;;;21.95;100.00;100424.81;9746536;29;98737;-89
2023/08/19 09:46:08;;;;;;;;;;;23.10;99.90;;;22.01;100.00;100433.81;9751499;29;98959;-89
2023/08/19 09:51:22;;;;;;;;;;;23.20;99.90;;;21.96;100.00;100429.16;9728645;29;98309;-87
2023/08/19 09:56:27;;;;;;;;;;;23.20;99.90;;;21.94;100.00;100416.91;9724152;29;96802;-88
2023/08/19 10:01:31;;;;;;;;;;;23.00;99.90;;;21.93;100.00;100407.97;9729794;29;98463;-87
2023/08/19 10:06:38;;;;;;;;;;;23.10;99.90;;;22.01;100.00;100418.44;9741868;29;98466;-87
2023/08/19 10:11:50;;;;;;;;;;;23.20;99.90;;;22.01;100.00;100401.34;9737777;29;96828;-90
2023/08/19 10:16:59;;;;;;;;;;;23.20;99.90;;;22.11;100.00;100397.03;9755852;29;96921;-86
2023/08/19 10:22:03;;;;;;;;;;;23.20;99.90;;;22.23;100.00;100390.75;9744336;29;97305;-87
2023/08/19 10:27:17;;;;;;;;;;;23.40;99.90;;;22.37;100.00;100390.25;9740560;29;98928;-86
2023/08/19 10:32:31;;;;;;;;;;;23.50;99.90;;;22.59;100.00;100403.94;9721017;29;96752;-86
2023/08/19 10:37:40;;;;;;;;;;;23.70;99.90;;;22.77;100.00;100394.78;9742889;29;97241;-86
2023/08/19 10:42:54;;;;;;;;;;;23.90;99.90;;;22.93;100.00;100388.59;9751673;29;99048;-86
2023/08/19 10:47:58;;;;;;;;;;;24.10;99.90;;;23.03;100.00;100360.88;9747480;29;96854;-86
2023/08/19 10:53:04;;;;;;;;;;;24.20;99.90;;;23.15;100.00;100358.03;9736565;29;97995;-87
2023/08/19 10:58:08;;;;;;;;;;;24.30;99.90;;;23.23;100.00;100358.47;9768461;29;99064;-87
2023/08/19 11:03:12;;;;;;;;;;;24.40;99.90;;;23.32;100.00;100344.50;9735525;29;98185;-87
2023/08/19 11:08:16;;;;;;;;;;;24.50;99.90;;;23.41;100.00;100340.28;9753296;29;96794;-88
2023/08/19 11:13:22;;;;;;;;;;;24.60;99.90;;;23.65;100.00;100335.50;9739204;29;97586;-88
2023/08/19 11:18:26;;;;;;;;;;;24.80;99.90;;;23.86;100.00;100333.88;9738582;29;96874;-89
2023/08/19 11:23:29;;;;;;;;;;;25.00;99.90;;;24.11;100.00;100338.78;9733493;29;98548;-88
2023/08/19 11:28:36;;;;;;;;;;;25.30;99.90;;;24.38;100.00;100325.28;9766646;29;98258;-87
2023/08/19 11:33:41;;;;;;;;;;;25.60;99.90;;;24.80;100.00;100333.56;9769249;29;98759;-88
2023/08/19 11:38:46;;;;;;;;;;;26.00;99.90;;;25.11;91.93;100322.97;9735808;29;97797;-88
2023/08/19 11:43:55;;;;;;;;;;;26.30;99.90;;;25.39;91.13;100316.38;9761995;29;96824;-88
2023/08/19 11:49:01;;;;;;;;;;;26.60;99.90;;;25.69;83.99;100327.41;9756687;29;97563;-89
2023/08/19 11:54:07;;;;;;;;;;;26.90;99.90;;;25.95;81.03;100313.94;9740320;29;98943;-87
2023/08/19 11:59:11;;;;;;;;;;;27.10;99.90;;;26.10;78.14;100308.56;9732481;29;96885;-88
2023/08/19 12:04:15;;;;;;;;;;;27.30;99.90;;;26.31;78.41;100315.66;9749334;29;98289;-89
2023/08/19 12:09:30;;;;;;;;;;;27.60;99.90;;;26.50;73.94;100326.09;9735148;29;97367;-88
2023/08/19 12:14:33;;;;;;;;;;;27.80;99.90;;;26.51;67.70;100322.28;9743813;29;97232;-89
2023/08/19 12:19:37;;;;;;;;;;;27.90;99.90;;;26.57;67.59;100326.63;9739266;29;97409;-88
2023/08/19 12:24:41;;;;;;;;;;;27.90;99.90;;;26.61;66.15;100320.38;9735538;29;98422;-88
2023/08/19 12:29:48;;;;;;;;;;;28.00;99.90;;;26.78;68.77;100316.59;9743647;29;99157;-89
2023/08/19 12:34:52;;;;;;;;;;;28.10;99.90;;;26.83;63.27;100316.59;9757299;29;98918;-88
2023/08/19 12:39:55;;;;;;;;;;;28.20;99.90;;;26.87;64.63;100313.06;9740861;29;98087;-89
2023/08/19 12:44:59;;;;;;;;;;;28.20;99.90;;;26.94;63.57;100299.97;9749221;29;97144;-89
2023/08/19 12:50:02;;;;;;;;;;;28.30;99.60;;;27.18;65.67;100299.41;9743991;29;96924;-90
2023/08/19 12:55:07;;;;;;;;;;;28.50;99.50;;;27.49;63.46;100305.63;9714467;29;97345;-89
2023/08/19 13:00:12;;;;;;;;;;;28.80;99.20;;;27.68;62.45;100303.09;9746503;29;97323;-90
2023/08/19 13:05:16;;;;;;;;;;;29.10;98.70;;;27.83;63.98;100299.50;9732895;29;97238;-90
2023/08/19 13:10:19;;;;;;;;;;;29.20;98.60;;;27.93;63.06;100297.56;9755080;29;96651;-90
2023/08/19 13:15:23;;;;;;;;;;;29.30;97.10;;;27.98;64.14;100297.53;9746239;29;96747;-90
2023/08/19 13:20:27;;;;;;;;;;;29.40;97.40;;;28.16;62.04;100295.25;9729981;29;96869;-89
2023/08/19 13:25:30;;;;;;;;;;;29.70;96.40;;;28.40;61.20;100293.50;9754688;29;98767;-89
2023/08/19 13:30:34;;;;;;;;;;;30.10;94.50;;;28.71;60.78;100293.25;9736367;29;97584;-89
2023/08/19 13:35:38;;;;;;;;;;;30.50;96.00;;;29.03;59.62;100290.81;9739873;29;96759;-89
2023/08/19 13:40:41;;;;;;;;;;;30.70;95.20;;;29.33;57.99;100294.38;9741700;29;97388;-90
2023/08/19 13:45:46;;;;;;;;;;;30.90;92.90;;;29.56;58.67;100279.88;9751333;29;97214;-89
2023/08/19 13:50:49;;;;;;;;;;;31.00;94.50;;;29.76;56.05;100281.56;9763520;29;96635;-88
2023/08/19 13:55:54;;;;;;;;;;;31.10;91.00;;;29.79;56.05;100278.22;9747632;29;96631;-89
2023/08/19 14:00:57;;;;;;;;;;;31.00;91.60;;;29.75;54.55;100276.38;9732481;29;98742;-88
2023/08/19 14:06:02;;;;;;;;;;;31.00;90.50;;;29.80;54.53;100273.56;9780529;29;96697;-89
2023/08/19 14:11:08;;;;;;;;;;;31.00;91.60;;;29.99;52.72;100262.59;9740398;29;97511;-89
2023/08/19 14:16:11;;;;;;;;;;;31.40;91.50;;;30.11;53.30;100250.16;9762122;29;96572;-90
2023/08/19 14:21:15;;;;;;;;;;;31.80;89.90;;;29.94;51.69;100251.75;9760969;29;96739;-89
2023/08/19 14:26:19;;;;;;;;;;;31.80;89.80;;;29.82;53.08;100252.19;9751075;29;96730;-90
2023/08/19 14:31:22;;;;;;;;;;;31.70;88.60;;;29.99;52.36;100248.91;9756253;29;97927;-90
2023/08/19 14:36:26;;;;;;;;;;;32.00;89.00;;;30.21;53.94;100251.09;9741233;29;98400;-90
2023/08/19 14:41:29;;;;;;;;;;;32.20;87.80;;;30.35;50.56;100260.22;9743074;29;97006;-90
2023/08/19 14:46:34;;;;;;;;;;;32.30;85.30;;;30.60;49.29;100253.50;9751332;29;97785;-89
2023/08/19 14:51:37;;;;;;;;;;;32.60;86.50;;;30.87;49.44;100250.03;9751014;29;97585;-89
2023/08/19 14:56:41;;;;;;;;;;;32.80;85.90;;;31.41;48.75;100253.97;9749722;29;96683;-90
2023/08/19 15:01:46;;;;;;;;;;;33.30;86.20;;;31.99;43.38;100253.31;9743736;29;96811;-89
2023/08/19 15:06:50;;;;;;;;;;;33.90;72.20;;;32.48;46.39;100257.16;9761811;29;97012;-90
2023/08/19 15:11:54;;;;;;;;;;;34.30;79.30;;;32.87;45.68;100250.09;9734024;29;97803;-90
2023/08/19 15:16:57;;;;;;;;;;;34.70;76.40;;;33.29;45.10;100257.00;9738084;29;98513;-89
2023/08/19 15:22:01;;;;;;;;;;;35.00;77.90;;;33.54;43.94;100247.22;9753264;29;97015;-90
2023/08/19 15:27:05;;;;;;;;;;;35.30;78.90;;;33.76;40.76;100255.34;9751241;29;98422;-91
2023/08/19 15:32:10;;;;;;;;;;;35.50;71.30;;;33.64;41.13;100251.59;9750747;29;96869;-91
2023/08/19 15:37:17;;;;;;;;;;;35.40;72.80;;;33.57;43.87;100257.56;9743411;29;99963;-90
2023/08/19 15:42:20;;;;;;;;;;;35.30;74.90;;;33.58;43.77;100252.88;9742150;29;97346;-92
2023/08/19 15:47:24;;;;;;;;;;;35.30;76.10;;;33.44;42.67;100253.00;9744945;29;96760;-92
2023/08/19 15:52:27;;;;;;;;;;;35.10;69.70;;;33.24;42.14;100246.91;9763287;29;96716;-92
2023/08/19 15:57:30;;;;;;;;;;;34.90;72.90;;;33.08;43.86;100250.41;9748369;29;97538;-92
2023/08/19 16:02:34;;;;;;;;;;;34.70;74.30;;;32.86;43.24;100242.97;9767933;29;96662;-92
2023/08/19 16:07:39;;;;;;;;;;;34.50;74.10;;;32.85;44.11;100250.41;9739873;29;96778;-92
2023/08/19 16:12:43;;;;;;;;;;;34.40;71.10;;;32.69;43.29;100254.72;9741773;29;96760;-90
2023/08/19 16:17:46;;;;;;;;;;;34.20;73.40;;;32.54;46.84;100244.91;9769295;29;96754;-92
2023/08/19 16:22:50;;;;;;;;;;;34.10;74.20;;;32.46;46.37;100245.66;9764944;29;97130;-92
2023/08/19 16:27:53;;;;;;;;;;;33.90;72.60;;;32.29;49.51;100251.00;9757548;29;96628;-92
2023/08/19 16:32:57;;;;;;;;;;;33.70;75.90;;;31.98;50.22;100262.69;9770924;29;96667;-90
2023/08/19 16:38:03;;;;;;;;;;;33.40;76.60;;;31.43;52.60;100254.50;9767033;29;96572;-92
2023/08/19 16:43:06;;;;;;;;;;;32.90;77.40;;;30.94;53.50;100255.94;9763834;29;96719;-91
2023/08/19 16:48:10;;;;;;;;;;;32.50;77.60;;;30.33;55.42;100271.47;9751543;29;97005;-92
2023/08/19 16:53:13;;;;;;;;;;;31.90;79.00;;;29.74;56.54;100269.25;9748012;29;97157;-92
2023/08/19 16:58:17;;;;;;;;;;;31.20;79.80;;;29.03;58.37;100271.69;9755387;29;97565;-90
2023/08/19 17:03:20;;;;;;;;;;;30.50;80.70;;;28.52;60.33;100285.75;9740641;29;97619;-90
2023/08/19 17:08:24;;;;;;;;;;;29.90;81.90;;;28.16;62.52;100276.13;9737547;29;97376;-90
2023/08/19 17:13:28;;;;;;;;;;;29.40;83.80;;;27.67;65.15;100274.16;9748232;29;97546;-90
2023/08/19 17:18:32;;;;;;;;;;;29.00;84.40;;;27.12;68.47;100278.69;9733974;29;98793;-91
2023/08/19 17:23:35;;;;;;;;;;;28.40;87.40;;;26.66;70.13;100287.69;9737702;29;97405;-90
2023/08/19 17:28:40;;;;;;;;;;;27.80;89.30;;;26.35;71.11;100277.81;9741829;29;97666;-89
2023/08/19 17:33:43;;;;;;;;;;;27.50;90.00;;;26.18;71.79;100279.97;9744919;29;98188;-89
2023/08/19 17:38:47;;;;;;;;;;;27.20;90.50;;;25.96;72.31;100283.72;9730929;29;97108;-91
2023/08/19 17:43:50;;;;;;;;;;;27.00;90.80;;;25.68;72.51;100295.03;9726714;29;96877;-91
2023/08/19 17:48:54;;;;;;;;;;;26.80;90.80;;;25.44;74.38;100297.34;9737143;29;97812;-90
2023/08/19 17:53:58;;;;;;;;;;;26.50;91.60;;;25.24;74.96;100303.47;9752490;29;97755;-90
2023/08/19 17:59:06;;;;;;;;;;;26.20;92.20;;;25.03;77.01;100306.03;9744334;29;97004;-90
2023/08/19 18:04:10;;;;;;;;;;;26.00;92.90;;;24.85;77.80;100311.06;9749104;29;96933;-91
2023/08/19 18:09:16;;;;;;;;;;;25.80;93.20;;;24.64;80.13;100316.28;9736146;29;99027;-91
2023/08/19 18:14:23;;;;;;;;;;;25.60;94.50;;;24.47;84.00;100321.88;9755549;29;98622;-91
2023/08/19 18:19:34;;;;;;;;;;;25.40;95.70;;;24.36;86.64;100341.03;9743791;29;97588;-90
2023/08/19 18:24:38;;;;;;;;;;;25.30;96.50;;;24.30;86.88;100349.06;9743782;29;98710;-91
2023/08/19 18:29:41;;;;;;;;;;;25.20;96.50;;;24.24;89.59;100349.28;9732517;29;98881;-90
2023/08/19 18:34:46;;;;;;;;;;;25.10;98.00;;;24.09;90.93;100351.81;9752094;29;96937;-91
2023/08/19 18:39:50;;;;;;;;;;;25.00;99.30;;;23.99;90.72;100357.91;9740067;29;98522;-90
2023/08/19 18:44:53;;;;;;;;;;;24.90;99.70;;;23.90;90.93;100364.88;9761932;29;98418;-90
2023/08/19 18:49:57;;;;;;;;;;;24.80;99.90;;;23.81;89.76;100366.38;9764446;29;96753;-89
2023/08/19 18:55:02;;;;;;;;;;;24.70;99.90;;;23.67;89.28;100366.72;9722302;29;97402;-90
2023/08/19 19:00:08;;;;;;;;;;;24.60;99.90;;;23.60;89.08;100376.91;9758691;29;98716;-90
2023/08/19 19:05:11;;;;;;;;;;;24.50;99.90;;;23.52;88.87;100381.97;9719564;29;98329;-92
2023/08/19 19:10:16;;;;;;;;;;;24.50;99.90;;;23.51;88.73;100389.28;9746212;29;98398;-90
2023/08/19 19:15:20;;;;;;;;;;;24.40;99.90;;;23.48;88.60;100389.75;9762331;29;99282;-92
2023/08/19 19:20:27;;;;;;;;;;;24.40;99.90;;;23.39;88.92;100380.38;9725625;29;98607;-90
2023/08/19 19:25:30;;;;;;;;;;;24.30;99.90;;;23.32;89.38;100379.72;9743392;29;96900;-91
2023/08/19 19:30:34;;;;;;;;;;;24.30;99.90;;;23.28;89.31;100378.59;9745256;29;96957;-94
2023/08/19 19:35:38;;;;;;;;;;;24.20;99.90;;;23.22;89.67;100383.13;9758081;29;97244;-92
2023/08/19 19:40:42;;;;;;;;;;;24.10;99.90;;;23.10;89.77;100382.38;9757885;29;98152;-92
2023/08/19 19:45:45;;;;;;;;;;;24.10;99.90;;;23.01;89.87;100373.00;9767280;29;98179;-93
2023/08/19 19:50:49;;;;;;;;;;;24.00;99.90;;;22.98;89.91;100374.31;9716675;29;98355;-90
2023/08/19 19:55:52;;;;;;;;;;;24.00;99.90;;;22.94;90.42;100384.81;9742832;29;97966;-89
2023/08/19 20:00:56;;;;;;;;;;;23.90;99.90;;;22.83;91.69;100393.81;9733767;29;97127;-88
2023/08/19 20:05:59;;;;;;;;;;;23.80;99.90;;;22.74;92.08;100384.44;9740010;29;99003;-91
2023/08/19 20:11:04;;;;;;;;;;;23.70;99.90;;;22.71;92.01;100383.03;9723503;29;97558;-91
2023/08/19 20:16:07;;;;;;;;;;;23.70;99.90;;;22.62;93.20;100392.63;9747637;29;98881;-91
2023/08/19 20:21:12;;;;;;;;;;;23.70;99.90;;;22.55;94.75;100402.78;9752159;29;96854;-91
2023/08/19 20:26:16;;;;;;;;;;;23.50;99.90;;;22.43;95.56;100401.97;9759081;29;98504;-90
2023/08/19 20:31:19;;;;;;;;;;;23.40;99.90;;;22.36;96.13;100404.00;9747304;29;98696;-91
2023/08/19 20:36:24;;;;;;;;;;;23.30;99.90;;;22.31;95.94;100401.19;9729490;29;97342;-92
2023/08/19 20:41:28;;;;;;;;;;;23.20;99.90;;;22.26;95.94;100395.72;9744952;29;98050;-93
2023/08/19 20:46:31;;;;;;;;;;;23.20;99.90;;;22.32;95.55;100413.69;9736149;29;97430;-91
2023/08/19 20:51:35;;;;;;;;;;;23.30;99.90;;;22.34;95.09;100408.84;9741170;29;97866;-90
2023/08/19 20:56:41;;;;;;;;;;;23.30;99.90;;;22.31;95.49;100412.88;9728535;29;98464;-91
2023/08/19 21:01:44;;;;;;;;;;;23.30;99.90;;;22.27;96.04;100421.72;9751720;29;96878;-91
2023/08/19 21:06:48;;;;;;;;;;;23.20;99.90;;;22.21;96.42;100418.06;9734761;29;96781;-91
2023/08/19 21:11:53;;;;;;;;;;;23.20;99.90;;;22.21;96.62;100434.31;9752484;29;96699;-91
2023/08/19 21:16:56;;;;;;;;;;;23.20;99.90;;;22.20;96.63;100437.25;9730870;29;98393;-90
2023/08/19 21:22:00;;;;;;;;;;;23.20;99.90;;;22.13;96.41;100426.53;9734793;29;96763;-92
2023/08/19 21:27:04;;;;;;;;;;;23.20;99.90;;;22.16;96.07;100445.84;9763164;29;97265;-92
2023/08/19 21:32:08;;;;;;;;;;;23.20;99.90;;;22.20;96.36;100454.31;9744676;29;96890;-91
2023/08/19 21:37:11;;;;;;;;;;;23.20;99.90;;;22.15;96.49;100425.25;9746742;29;96778;-92
2023/08/19 21:42:15;;;;;;;;;;;23.20;99.90;;;22.19;96.05;100436.44;9735842;29;97807;-92
2023/08/19 21:47:19;;;;;;;;;;;23.30;99.90;;;22.17;96.10;100447.47;9745590;29;98487;-90
2023/08/19 21:52:23;;;;;;;;;;;23.20;99.90;;;22.11;96.02;100450.31;9752342;29;97020;-92
2023/08/19 21:57:26;;;;;;;;;;;23.20;99.90;;;22.03;96.74;100448.78;9733116;29;96602;-92
2023/08/19 22:02:30;;;;;;;;;;;23.10;99.90;;;21.94;97.96;100446.66;9758829;29;98709;-92
2023/08/19 22:07:34;;;;;;;;;;;23.00;99.90;;;21.83;97.98;100437.50;9746255;29;97173;-92
2023/08/19 22:12:39;;;;;;;;;;;23.00;99.90;;;21.82;98.56;100446.66;9750429;29;97224;-92
2023/08/19 22:17:42;;;;;;;;;;;22.90;99.90;;;21.71;98.93;100451.03;9765095;29;96852;-93
2023/08/19 22:22:46;;;;;;;;;;;22.90;99.90;;;21.70;100.00;100459.38;9763318;29;97376;-91
2023/08/19 22:27:50;;;;;;;;;;;22.80;99.90;;;21.61;100.00;100448.91;9759073;29;98411;-92
2023/08/19 22:32:54;;;;;;;;;;;22.70;99.90;;;21.48;100.00;100451.84;9772393;29;97013;-92
2023/08/19 22:37:57;;;;;;;;;;;22.60;99.90;;;21.49;100.00;100458.88;9769153;29;98743;-91
2023/08/19 22:43:02;;;;;;;;;;;22.50;99.90;;;21.44;100.00;100447.13;9760943;29;96885;-91
2023/08/19 22:48:06;;;;;;;;;;;22.50;99.90;;;21.36;100.00;100442.91;9747773;29;97069;-90
2023/08/19 22:53:10;;;;;;;;;;;22.50;99.90;;;21.30;100.00;100449.22;9792318;29;97299;-92